Time;durP1;ratioP1;P1;durP2;ratioP2;P2;SDS_P1;SDS_P2;PMS_P1;PMS_P2;Temp;Humidity;BMP_temperature;BMP_pressure;BME280_temperature;BME280_humidity;BME280_pressure;Samples;Min_cycle;Max_cycle;Signal;HPM_P1;HPM_P2
2023/06/04 00:02:10;;;;;;;14.90;9.50;;;15.80;17.30;;;;;;5035838;28;21143;-66
2023/06/04 00:04:37;;;;;;;11.90;9.33;;;15.80;17.20;;;;;;5037375;28;20478;-65
2023/06/04 00:07:04;;;;;;;15.60;9.60;;;15.80;17.40;;;;;;5037199;28;20491;-65
2023/06/04 00:09:31;;;;;;;12.87;8.70;;;15.70;17.90;;;;;;5037019;28;20493;-65
2023/06/04 00:11:59;;;;;;;12.10;8.37;;;15.70;17.20;;;;;;5039793;28;20496;-65
2023/06/04 00:14:25;;;;;;;13.43;8.23;;;15.60;17.40;;;;;;5038910;28;20474;-65
2023/06/04 00:16:53;;;;;;;14.63;9.83;;;15.70;17.30;;;;;;5033114;28;20458;-65
2023/06/04 00:19:20;;;;;;;17.87;9.63;;;15.60;17.30;;;;;;5041400;28;20458;-65
2023/06/04 00:21:47;;;;;;;12.93;8.73;;;15.60;17.30;;;;;;5044270;28;20454;-65
2023/06/04 00:24:14;;;;;;;15.23;9.20;;;15.50;17.30;;;;;;5037972;28;20485;-65
2023/06/04 00:26:41;;;;;;;12.80;8.63;;;15.50;17.10;;;;;;5044779;28;20469;-65
2023/06/04 00:29:08;;;;;;;13.43;9.40;;;15.50;17.20;;;;;;5033854;28;20462;-65
2023/06/04 00:31:35;;;;;;;11.67;8.50;;;15.40;17.10;;;;;;5044652;28;20484;-65
2023/06/04 00:34:04;;;;;;;14.00;9.60;;;15.40;17.40;;;;;;5042290;28;20450;-65
2023/06/04 00:36:31;;;;;;;14.20;9.30;;;15.40;17.20;;;;;;5039914;28;20461;-65
2023/06/04 00:38:57;;;;;;;16.27;9.40;;;15.40;17.40;;;;;;5034710;28;20462;-65
2023/06/04 00:41:25;;;;;;;12.43;9.00;;;15.30;17.20;;;;;;5042525;28;20964;-65
2023/06/04 00:43:55;;;;;;;13.03;8.93;;;15.30;17.00;;;;;;5037907;28;21029;-65
2023/06/04 00:46:22;;;;;;;11.17;8.30;;;15.30;17.00;;;;;;5040104;28;20478;-65
2023/06/04 00:48:49;;;;;;;16.53;9.10;;;15.30;16.90;;;;;;5035634;28;20958;-65
2023/06/04 00:51:18;;;;;;;14.83;10.23;;;15.20;16.90;;;;;;5035601;28;20474;-65
2023/06/04 00:53:44;;;;;;;14.57;9.63;;;15.20;16.80;;;;;;5040480;28;20459;-66
2023/06/04 00:56:13;;;;;;;13.07;9.03;;;15.10;16.80;;;;;;5037724;28;20493;-65
2023/06/04 00:58:42;;;;;;;17.17;8.53;;;15.10;16.70;;;;;;5040121;28;20565;-65
2023/06/04 01:01:15;;;;;;;11.37;7.30;;;15.10;16.70;;;;;;5034094;28;20501;-65
2023/06/04 01:03:46;;;;;;;12.90;7.90;;;15.10;16.70;;;;;;5038394;28;20481;-65
2023/06/04 01:06:22;;;;;;;14.77;8.03;;;15.00;16.80;;;;;;5040883;28;20483;-65
2023/06/04 01:08:54;;;;;;;10.47;7.80;;;15.00;17.00;;;;;;5044247;28;20466;-65
2023/06/04 01:11:31;;;;;;;13.10;8.20;;;15.00;17.00;;;;;;5037906;28;20466;-65
2023/06/04 01:13:57;;;;;;;11.63;7.67;;;14.90;16.90;;;;;;5035925;28;20458;-65
2023/06/04 01:16:25;;;;;;;11.70;7.10;;;14.80;16.90;;;;;;5036451;28;20569;-65
2023/06/04 01:18:52;;;;;;;9.30;6.70;;;14.80;16.90;;;;;;5034657;28;20480;-65
2023/06/04 01:21:20;;;;;;;14.30;7.87;;;14.80;16.70;;;;;;5038170;28;20470;-65
2023/06/04 01:23:58;;;;;;;14.90;7.50;;;14.80;16.70;;;;;;5039290;28;20496;-65
2023/06/04 01:26:26;;;;;;;11.30;6.90;;;14.80;16.90;;;;;;5036161;28;21258;-65
2023/06/04 01:28:54;;;;;;;13.77;6.63;;;14.80;16.80;;;;;;5039888;28;20470;-65
2023/06/04 01:31:22;;;;;;;11.50;7.07;;;14.70;16.50;;;;;;5039697;28;20849;-65
2023/06/04 01:33:51;;;;;;;10.13;8.00;;;14.70;16.60;;;;;;5038927;28;20549;-65
2023/06/04 01:36:20;;;;;;;16.23;7.77;;;14.60;16.90;;;;;;5039859;28;20490;-65
2023/06/04 01:38:46;;;;;;;12.20;7.70;;;14.60;17.00;;;;;;5038837;28;20848;-65
2023/06/04 01:41:14;;;;;;;13.10;7.03;;;14.60;16.90;;;;;;5046924;28;20516;-65
2023/06/04 01:43:40;;;;;;;11.10;6.67;;;14.50;16.90;;;;;;5040145;28;20469;-65
2023/06/04 01:46:07;;;;;;;11.33;7.83;;;14.50;16.90;;;;;;5034585;28;21109;-65
2023/06/04 01:48:34;;;;;;;11.50;6.83;;;14.50;16.90;;;;;;5042028;28;20462;-65
2023/06/04 01:51:02;;;;;;;11.20;6.23;;;14.40;16.90;;;;;;5040464;28;20485;-65
2023/06/04 01:53:30;;;;;;;9.40;6.57;;;14.40;17.00;;;;;;5039096;28;20478;-65
2023/06/04 01:55:58;;;;;;;9.60;6.13;;;14.30;16.90;;;;;;5035829;28;20508;-65
2023/06/04 01:58:26;;;;;;;10.70;6.60;;;14.30;17.10;;;;;;5037885;28;20470;-65
2023/06/04 02:00:54;;;;;;;11.47;6.40;;;14.30;16.90;;;;;;5036055;28;20979;-65
2023/06/04 02:03:21;;;;;;;12.10;5.90;;;14.30;16.90;;;;;;5037834;28;21092;-65
2023/06/04 02:05:48;;;;;;;10.63;6.73;;;14.20;16.80;;;;;;5031456;28;20489;-65
2023/06/04 02:10:55;;;;;;;10.50;7.03;;;14.20;16.90;;;;;;5040592;28;20493;-69
2023/06/04 02:13:22;;;;;;;12.13;7.63;;;14.10;17.00;;;;;;5044563;28;20806;-69
2023/06/04 02:15:49;;;;;;;8.90;6.23;;;14.10;16.90;;;;;;5042179;28;20477;-69
2023/06/04 02:18:18;;;;;;;10.20;6.97;;;14.10;17.10;;;;;;5044801;28;20458;-69
2023/06/04 02:20:45;;;;;;;10.80;7.50;;;14.00;17.10;;;;;;5044335;28;20458;-69
2023/06/04 02:23:12;;;;;;;14.13;8.93;;;14.00;16.90;;;;;;5041443;28;20462;-69
2023/06/04 02:25:39;;;;;;;10.47;7.83;;;13.90;16.90;;;;;;5045943;28;20494;-70
2023/06/04 02:28:07;;;;;;;10.60;7.33;;;13.90;16.90;;;;;;5045155;28;20481;-70
2023/06/04 02:30:34;;;;;;;11.30;7.13;;;13.90;16.80;;;;;;5043468;28;20478;-70
2023/06/04 02:33:01;;;;;;;12.87;6.20;;;13.90;16.80;;;;;;5044495;28;20471;-69
2023/06/04 02:35:28;;;;;;;9.57;6.17;;;13.90;16.60;;;;;;5042690;28;20517;-70
2023/06/04 02:37:56;;;;;;;11.43;6.83;;;13.90;16.60;;;;;;5045784;28;20956;-69
2023/06/04 02:40:23;;;;;;;9.00;6.10;;;13.90;16.70;;;;;;5045891;28;20524;-70
2023/06/04 02:42:49;;;;;;;10.50;5.40;;;13.80;16.70;;;;;;5044962;28;21129;-70
2023/06/04 02:45:17;;;;;;;8.27;4.70;;;13.80;16.90;;;;;;5043571;28;21306;-70
2023/06/04 02:47:44;;;;;;;8.60;4.80;;;13.70;16.80;;;;;;5045770;28;20462;-70
2023/06/04 02:50:12;;;;;;;9.90;4.67;;;13.70;16.60;;;;;;5047274;28;20932;-69
2023/06/04 02:52:39;;;;;;;8.53;4.70;;;13.70;16.70;;;;;;5046507;28;20549;-69
2023/06/04 02:55:08;;;;;;;8.80;4.33;;;13.60;16.70;;;;;;5047946;28;20485;-70
2023/06/04 02:57:35;;;;;;;9.90;5.03;;;13.60;16.70;;;;;;5044611;28;20486;-70
2023/06/04 03:00:08;;;;;;;9.37;5.07;;;13.60;16.70;;;;;;5044854;28;20466;-69
2023/06/04 03:02:36;;;;;;;10.40;5.00;;;13.60;17.00;;;;;;5044875;28;20589;-69
2023/06/04 03:05:04;;;;;;;8.87;4.40;;;13.60;16.70;;;;;;5044270;28;20482;-70
2023/06/04 03:07:31;;;;;;;7.90;4.60;;;13.60;16.60;;;;;;5044955;28;20466;-69
2023/06/04 03:09:58;;;;;;;8.37;4.73;;;13.60;16.70;;;;;;5046693;28;21027;-69
2023/06/04 03:12:24;;;;;;;8.07;4.23;;;13.60;16.50;;;;;;5044866;28;20480;-69
2023/06/04 03:14:51;;;;;;;11.17;4.47;;;13.60;16.50;;;;;;5045783;28;20485;-69
2023/06/04 03:17:18;;;;;;;10.00;4.63;;;13.50;16.80;;;;;;5042695;28;20462;-69
2023/06/04 03:19:47;;;;;;;10.07;4.77;;;13.50;16.70;;;;;;5046721;28;20954;-69
2023/06/04 03:22:15;;;;;;;9.20;4.70;;;13.50;16.70;;;;;;5047147;28;20466;-69
2023/06/04 03:24:42;;;;;;;7.70;4.13;;;13.50;16.60;;;;;;5041136;28;20486;-68
2023/06/04 03:27:10;;;;;;;7.50;3.90;;;13.40;16.50;;;;;;5044347;28;20866;-69
2023/06/04 03:29:38;;;;;;;7.93;4.10;;;13.40;16.30;;;;;;5044454;28;20466;-69
2023/06/04 03:32:05;;;;;;;7.40;3.63;;;13.40;16.20;;;;;;5045789;28;20480;-69
2023/06/04 03:34:32;;;;;;;10.60;4.53;;;13.40;16.20;;;;;;5043806;28;20501;-69
2023/06/04 03:37:01;;;;;;;9.37;4.13;;;13.40;16.10;;;;;;5045184;28;20477;-69
2023/06/04 03:39:27;;;;;;;7.83;3.60;;;13.50;16.10;;;;;;5045234;28;20477;-69
2023/06/04 03:41:54;;;;;;;9.80;4.27;;;13.50;15.90;;;;;;5047293;28;20462;-69
2023/06/04 03:44:22;;;;;;;8.20;3.80;;;13.50;16.10;;;;;;5045162;28;20485;-69
2023/06/04 03:46:49;;;;;;;8.67;3.40;;;13.50;16.00;;;;;;5041885;28;20465;-70
2023/06/04 03:49:17;;;;;;;6.60;3.23;;;13.50;15.90;;;;;;5045306;28;20508;-69
2023/06/04 03:51:43;;;;;;;8.00;4.00;;;13.50;15.70;;;;;;5049436;28;20462;-68
2023/06/04 03:54:16;;;;;;;7.20;3.80;;;13.50;15.60;;;;;;5049723;28;20815;-69
2023/06/04 03:56:43;;;;;;;6.93;3.27;;;13.60;15.80;;;;;;5060463;28;20473;-70
2023/06/04 03:59:10;;;;;;;8.63;4.73;;;13.60;15.40;;;;;;5069371;28;20466;-69
2023/06/04 04:01:37;;;;;;;10.33;4.33;;;13.60;15.10;;;;;;5049772;28;20481;-69
2023/06/04 04:04:05;;;;;;;8.97;3.53;;;13.60;14.90;;;;;;5049343;28;20496;-69
2023/06/04 04:06:32;;;;;;;9.30;3.73;;;13.60;15.00;;;;;;5046456;28;21207;-69
2023/06/04 04:08:59;;;;;;;9.03;3.67;;;13.60;15.10;;;;;;5048760;28;20477;-69
2023/06/04 04:11:27;;;;;;;10.60;4.40;;;13.70;15.00;;;;;;5050183;28;21039;-70
2023/06/04 04:13:54;;;;;;;8.17;3.77;;;13.70;14.80;;;;;;5043000;28;21133;-69
2023/06/04 04:16:20;;;;;;;8.17;3.77;;;13.80;14.80;;;;;;5048698;28;20489;-69
2023/06/04 04:18:47;;;;;;;6.20;3.73;;;13.80;14.90;;;;;;5046596;28;20877;-69
2023/06/04 04:21:14;;;;;;;7.53;3.37;;;13.90;14.90;;;;;;5050775;28;20992;-70
2023/06/04 04:23:41;;;;;;;7.97;3.83;;;13.90;14.90;;;;;;5043737;28;20458;-69
2023/06/04 04:26:08;;;;;;;5.90;3.30;;;14.00;14.50;;;;;;5043563;28;20509;-69
2023/06/04 04:28:37;;;;;;;6.83;3.80;;;14.20;14.30;;;;;;5047971;28;20470;-69
2023/06/04 04:31:03;;;;;;;7.40;3.30;;;15.10;13.70;;;;;;5047552;28;20544;-69
2023/06/04 04:33:36;;;;;;;6.30;3.07;;;16.40;11.30;;;;;;5047205;28;21025;-69
2023/06/04 04:36:03;;;;;;;6.27;3.10;;;17.50;8.70;;;;;;5043737;28;20489;-69
2023/06/04 04:38:33;;;;;;;7.93;3.10;;;18.50;6.30;;;;;;5047333;28;20465;-69
2023/06/04 04:41:00;;;;;;;6.67;3.30;;;19.20;5.10;;;;;;5045037;28;20469;-70
2023/06/04 04:43:31;;;;;;;7.40;3.70;;;19.70;4.60;;;;;;5043199;28;20474;-69
2023/06/04 04:45:59;;;;;;;6.00;3.10;;;20.40;3.10;;;;;;5042958;28;20482;-69
2023/06/04 04:48:26;;;;;;;7.70;3.20;;;20.70;1.80;;;;;;5045393;28;20564;-69
2023/06/04 04:50:53;;;;;;;6.50;3.27;;;20.30;2.40;;;;;;5043968;28;21099;-69
2023/06/04 04:53:20;;;;;;;6.60;2.90;;;19.80;3.30;;;;;;5044280;28;20469;-69
2023/06/04 04:55:47;;;;;;;5.70;2.93;;;19.90;3.50;;;;;;5044874;28;20496;-69
2023/06/04 04:58:14;;;;;;;6.37;3.30;;;21.20;2.30;;;;;;5047317;28;20463;-69
2023/06/04 05:00:40;;;;;;;8.37;3.50;;;22.70;1.00;;;;;;5045997;28;20473;-69
2023/06/04 05:03:08;;;;;;;6.17;2.70;;;23.90;1.00;;;;;;5046072;28;20458;-69
2023/06/04 05:05:35;;;;;;;6.33;3.13;;;24.80;1.00;;;;;;5042175;28;20482;-69
2023/06/04 05:08:02;;;;;;;6.70;2.90;;;25.70;1.00;;;;;;5046298;28;20592;-70
2023/06/04 05:10:29;;;;;;;5.67;2.90;;;26.50;1.00;;;;;;5047469;28;20473;-70
2023/06/04 05:12:58;;;;;;;7.30;2.73;;;27.20;1.00;;;;;;5047963;28;20470;-70
2023/06/04 05:15:26;;;;;;;7.23;2.87;;;27.90;1.00;;;;;;5041797;28;21038;-70
2023/06/04 05:17:53;;;;;;;5.90;2.63;;;28.50;1.00;;;;;;5044779;28;20471;-68
2023/06/04 05:20:22;;;;;;;6.40;2.77;;;29.20;1.00;;;;;;5043811;28;20830;-68
2023/06/04 05:22:49;;;;;;;6.63;2.80;;;29.80;1.00;;;;;;5045464;28;20569;-68
2023/06/04 05:25:16;;;;;;;5.30;2.60;;;30.50;1.00;;;;;;5041925;28;20480;-68
2023/06/04 05:27:42;;;;;;;5.63;3.20;;;31.20;1.00;;;;;;5049575;28;20466;-68
2023/06/04 05:30:11;;;;;;;5.10;2.30;;;31.80;1.00;;;;;;5044674;28;20466;-68
2023/06/04 05:32:40;;;;;;;6.47;3.00;;;32.40;1.00;;;;;;5042907;28;20991;-69
2023/06/04 05:35:08;;;;;;;5.57;2.53;;;32.20;1.00;;;;;;5041357;28;20575;-69
2023/06/04 05:37:37;;;;;;;5.07;2.20;;;31.30;1.00;;;;;;5046022;28;20493;-70
2023/06/04 05:40:07;;;;;;;7.30;2.80;;;30.30;1.00;;;;;;5044948;28;20892;-68
2023/06/04 05:42:33;;;;;;;6.50;2.97;;;28.80;1.00;;;;;;5043187;28;20470;-68
2023/06/04 05:45:00;;;;;;;5.70;3.03;;;28.00;1.00;;;;;;5045780;28;20490;-68
2023/06/04 05:47:29;;;;;;;5.70;2.83;;;27.10;1.00;;;;;;5044404;28;20474;-69
2023/06/04 05:49:56;;;;;;;6.30;3.03;;;27.00;1.00;;;;;;5042430;28;20988;-69
2023/06/04 05:52:23;;;;;;;5.70;3.07;;;26.40;1.00;;;;;;5043795;28;20463;-70
2023/06/04 05:54:51;;;;;;;6.27;2.60;;;26.40;1.00;;;;;;5044406;28;20497;-68
2023/06/04 05:57:18;;;;;;;6.20;2.97;;;28.10;1.00;;;;;;5047431;28;20469;-68
2023/06/04 05:59:45;;;;;;;5.70;2.67;;;28.90;1.00;;;;;;5046016;28;22388;-69
2023/06/04 06:02:14;;;;;;;7.23;2.77;;;28.90;1.00;;;;;;5043237;28;21088;-69
2023/06/04 06:04:41;;;;;;;5.53;2.80;;;28.30;1.00;;;;;;5044412;28;20540;-70
2023/06/04 06:07:08;;;;;;;7.47;3.17;;;27.90;1.00;;;;;;5034023;28;20481;-67
2023/06/04 06:09:35;;;;;;;8.23;2.90;;;27.60;1.00;;;;;;5037911;28;20461;-69
2023/06/04 06:12:05;;;;;;;6.43;2.87;;;29.40;1.00;;;;;;5041863;28;20520;-69
2023/06/04 06:14:32;;;;;;;9.23;3.13;;;31.80;1.00;;;;;;5043235;28;20501;-69
2023/06/04 06:16:58;;;;;;;7.90;3.07;;;33.90;1.00;;;;;;5045948;28;20852;-68
2023/06/04 06:19:26;;;;;;;7.57;3.10;;;35.50;1.00;;;;;;5042522;28;20470;-69
2023/06/04 06:21:53;;;;;;;5.63;2.17;;;36.80;1.00;;;;;;5040436;28;20962;-70
2023/06/04 06:24:19;;;;;;;5.83;3.00;;;38.00;1.00;;;;;;5043795;28;20477;-69
2023/06/04 06:26:46;;;;;;;5.80;2.70;;;39.00;1.00;;;;;;5038068;28;20470;-68
2023/06/04 06:29:14;;;;;;;10.27;3.60;;;39.90;1.00;;;;;;5042076;28;20467;-69
2023/06/04 06:31:41;;;;;;;4.77;2.00;;;40.60;1.00;;;;;;5044355;28;20489;-69
2023/06/04 06:34:08;;;;;;;4.90;2.50;;;40.90;1.00;;;;;;5042418;28;20885;-69
2023/06/04 06:36:34;;;;;;;5.10;2.43;;;41.60;1.00;;;;;;5039187;28;20478;-70
2023/06/04 06:39:01;;;;;;;5.07;2.67;;;42.10;1.00;;;;;;5036168;28;20804;-70
2023/06/04 06:41:29;;;;;;;6.50;2.93;;;42.70;1.00;;;;;;5040747;28;20806;-68
2023/06/04 06:43:56;;;;;;;6.50;2.83;;;43.10;1.00;;;;;;5049069;28;20468;-67
2023/06/04 06:46:24;;;;;;;5.87;2.97;;;43.50;1.00;;;;;;5813404;22;20503;-68
2023/06/04 06:48:51;;;;;;;5.83;2.57;;;43.90;1.00;;;;;;5003889;28;20867;-68
2023/06/04 06:51:18;;;;;;;5.40;2.60;;;44.20;1.00;;;;;;5005678;28;20471;-69
2023/06/04 06:53:44;;;;;;;4.87;2.10;;;44.50;1.00;;;;;;5011472;28;20472;-69
2023/06/04 06:56:11;;;;;;;6.27;2.40;;;43.50;1.00;;;;;;5002959;28;20487;-68
2023/06/04 06:58:38;;;;;;;4.97;2.20;;;42.70;1.00;;;;;;5014290;28;20840;-67
2023/06/04 07:01:06;;;;;;;6.10;2.90;;;43.30;1.00;;;;;;5009601;28;20480;-68
2023/06/04 07:03:34;;;;;;;6.93;2.70;;;44.00;1.00;;;;;;5010105;28;20479;-72
2023/06/04 07:06:01;;;;;;;5.90;2.80;;;44.80;1.00;;;;;;5010735;28;20483;-69
2023/06/04 07:08:28;;;;;;;6.70;2.80;;;45.30;1.00;;;;;;5000438;28;20539;-71
2023/06/04 07:10:55;;;;;;;7.80;2.90;;;45.60;1.00;;;;;;5003588;28;20543;-70
2023/06/04 07:13:22;;;;;;;4.60;2.20;;;46.20;1.00;;;;;;5022964;22;20505;-71
2023/06/04 07:15:49;;;;;;;5.90;2.20;;;46.60;1.00;;;;;;5024377;28;20494;-68
2023/06/04 07:18:16;;;;;;;5.53;2.47;;;47.10;1.00;;;;;;5026444;28;20966;-69
2023/06/04 07:20:44;;;;;;;4.67;2.13;;;47.60;1.00;;;;;;5025045;28;20489;-69
2023/06/04 07:23:11;;;;;;;6.43;2.50;;;48.20;1.00;;;;;;5019632;28;20467;-69
2023/06/04 07:25:37;;;;;;;5.87;2.47;;;48.40;1.00;;;;;;5023252;28;20494;-70
2023/06/04 07:28:04;;;;;;;5.63;2.80;;;48.50;1.00;;;;;;5023272;28;20469;-69
2023/06/04 07:30:31;;;;;;;5.37;2.80;;;48.40;1.00;;;;;;5026414;28;20647;-70
2023/06/04 07:32:58;;;;;;;5.30;2.80;;;48.30;1.00;;;;;;5026497;28;20941;-69
2023/06/04 07:35:25;;;;;;;6.00;3.10;;;48.60;1.00;;;;;;5022305;28;20483;-70
2023/06/04 07:37:53;;;;;;;5.97;2.90;;;48.70;1.00;;;;;;5023004;28;20459;-68
2023/06/04 07:40:20;;;;;;;4.80;2.67;;;48.60;1.00;;;;;;5027963;28;20467;-68
2023/06/04 07:42:47;;;;;;;8.13;2.47;;;48.50;1.00;;;;;;5022663;28;20463;-68
2023/06/04 07:45:14;;;;;;;6.23;2.73;;;48.80;1.00;;;;;;5024706;28;20574;-68
2023/06/04 07:47:41;;;;;;;4.47;2.50;;;49.10;1.00;;;;;;5029369;28;20902;-69
2023/06/04 07:50:09;;;;;;;4.93;2.80;;;49.30;1.00;;;;;;5026304;28;20471;-69
2023/06/04 07:52:36;;;;;;;7.80;2.70;;;49.30;1.00;;;;;;5022730;28;20463;-68
2023/06/04 07:55:04;;;;;;;9.30;2.53;;;49.50;1.00;;;;;;5028218;28;20490;-66
2023/06/04 07:57:31;;;;;;;5.40;2.63;;;50.20;1.00;;;;;;5027346;28;20482;-66
2023/06/04 07:59:59;;;;;;;4.20;2.47;;;50.90;1.00;;;;;;5026636;28;20502;-65
2023/06/04 08:02:25;;;;;;;7.20;3.00;;;51.40;1.00;;;;;;5024582;28;20846;-66
2023/06/04 08:04:52;;;;;;;6.37;3.00;;;51.70;1.00;;;;;;5020089;28;20579;-65
2023/06/04 08:07:19;;;;;;;5.00;2.73;;;51.90;1.00;;;;;;5021882;28;20478;-67
2023/06/04 08:09:46;;;;;;;4.67;2.70;;;52.30;1.00;;;;;;5025064;28;20529;-66
2023/06/04 08:12:15;;;;;;;4.87;2.87;;;52.60;1.00;;;;;;5024515;28;20471;-66
2023/06/04 08:14:42;;;;;;;4.97;2.23;;;52.90;1.00;;;;;;5023833;28;20498;-66
2023/06/04 08:17:09;;;;;;;5.30;2.73;;;52.90;1.00;;;;;;5022949;28;20470;-66
2023/06/04 08:19:36;;;;;;;5.77;2.73;;;53.00;1.00;;;;;;5023182;28;20471;-66
2023/06/04 08:22:04;;;;;;;7.50;2.73;;;53.20;1.00;;;;;;5028095;28;20474;-66
2023/06/04 08:24:31;;;;;;;4.57;2.50;;;53.30;1.00;;;;;;5028967;28;20513;-66
2023/06/04 08:26:58;;;;;;;6.43;2.57;;;53.30;1.00;;;;;;5026616;28;20517;-66
2023/06/04 08:29:26;;;;;;;6.80;3.20;;;53.40;1.00;;;;;;5025897;28;20467;-66
2023/06/04 08:31:53;;;;;;;9.53;2.13;;;53.90;1.00;;;;;;5021766;28;20467;-66
2023/06/04 08:34:20;;;;;;;6.23;2.97;;;54.30;1.00;;;;;;5025550;28;20458;-67
2023/06/04 08:36:47;;;;;;;3.90;1.90;;;54.40;1.00;;;;;;5026744;28;20470;-66
2023/06/04 08:39:14;;;;;;;4.40;2.70;;;54.30;1.00;;;;;;5030111;28;20459;-66
2023/06/04 08:41:44;;;;;;;5.73;2.47;;;54.70;1.00;;;;;;5026923;28;20838;-66
2023/06/04 08:44:11;;;;;;;4.63;2.87;;;54.80;1.00;;;;;;5029351;28;20513;-67
2023/06/04 08:46:40;;;;;;;5.00;2.57;;;54.60;1.00;;;;;;5022709;28;20475;-66
2023/06/04 08:49:08;;;;;;;7.73;2.70;;;54.90;1.00;;;;;;5026056;28;20517;-66
2023/06/04 08:51:37;;;;;;;5.50;2.67;;;55.10;1.00;;;;;;5026544;28;20489;-67
2023/06/04 08:54:05;;;;;;;5.07;3.07;;;55.20;1.00;;;;;;5029172;28;20490;-66
2023/06/04 08:56:32;;;;;;;6.70;2.77;;;55.10;1.00;;;;;;5026738;28;20544;-66
2023/06/04 08:59:02;;;;;;;4.70;2.97;;;55.30;1.00;;;;;;5025651;28;20490;-67
2023/06/04 09:01:29;;;;;;;6.40;2.17;;;55.20;1.00;;;;;;5023258;28;20477;-66
2023/06/04 09:03:57;;;;;;;4.63;2.57;;;55.10;1.00;;;;;;5025969;28;20471;-66
2023/06/04 09:06:26;;;;;;;6.07;2.50;;;55.00;1.00;;;;;;5033816;28;21034;-66
2023/06/04 09:08:57;;;;;;;5.43;2.50;;;54.00;1.00;;;;;;5025330;28;20493;-66
2023/06/04 09:11:27;;;;;;;6.20;3.30;;;53.20;1.00;;;;;;5029961;28;20458;-66
2023/06/04 09:13:58;;;;;;;5.57;3.40;;;52.60;1.00;;;;;;5026004;28;20897;-66
2023/06/04 09:16:25;;;;;;;4.57;2.83;;;52.30;1.00;;;;;;5028632;28;20485;-66
2023/06/04 09:18:52;;;;;;;5.03;3.07;;;51.70;1.00;;;;;;5026910;28;20462;-67
2023/06/04 09:21:21;;;;;;;4.83;2.93;;;51.00;1.00;;;;;;5027581;28;20459;-66
2023/06/04 09:23:48;;;;;;;6.67;2.87;;;50.40;1.00;;;;;;5025242;28;20554;-66
2023/06/04 09:26:15;;;;;;;5.23;3.13;;;49.30;1.00;;;;;;5021399;28;20901;-66
2023/06/04 09:28:42;;;;;;;8.23;3.10;;;47.50;1.00;;;;;;5028948;28;20466;-66
2023/06/04 09:31:10;;;;;;;6.50;3.63;;;45.80;1.00;;;;;;5023151;28;21037;-66
2023/06/04 09:33:44;;;;;;;6.00;2.77;;;43.90;1.00;;;;;;5017514;28;20510;-66
2023/06/04 09:36:11;;;;;;;6.17;3.17;;;42.20;1.00;;;;;;5022047;28;20549;-66
2023/06/04 09:38:39;;;;;;;6.70;2.80;;;40.60;1.00;;;;;;5026486;28;20459;-66
2023/06/04 09:41:12;;;;;;;6.80;3.10;;;39.20;1.00;;;;;;5020888;28;20558;-66
2023/06/04 09:43:39;;;;;;;5.83;3.20;;;37.90;1.00;;;;;;5026145;28;20495;-66
2023/06/04 09:46:10;;;;;;;10.30;3.43;;;36.90;1.00;;;;;;5026215;28;20482;-66
2023/06/04 09:48:38;;;;;;;6.40;2.90;;;36.10;1.00;;;;;;5027481;28;20502;-66
2023/06/04 09:51:09;;;;;;;6.73;3.70;;;35.30;1.00;;;;;;5023053;28;20471;-66
2023/06/04 09:53:36;;;;;;;7.87;3.60;;;34.60;1.00;;;;;;5022602;28;20466;-65
2023/06/04 09:56:06;;;;;;;5.60;3.10;;;34.00;1.00;;;;;;5028476;28;20548;-66
2023/06/04 09:58:33;;;;;;;7.03;2.90;;;33.40;1.00;;;;;;5028443;28;20534;-65
2023/06/04 10:01:01;;;;;;;7.10;3.57;;;32.90;1.00;;;;;;5018796;28;20502;-65
2023/06/04 10:03:32;;;;;;;7.80;3.50;;;32.40;1.00;;;;;;5025093;28;20494;-65
2023/06/04 10:06:00;;;;;;;5.53;3.00;;;32.20;1.00;;;;;;5026630;28;21072;-65
2023/06/04 10:08:27;;;;;;;7.43;3.60;;;31.90;1.00;;;;;;5028880;28;20505;-65
2023/06/04 10:10:56;;;;;;;6.60;3.20;;;31.60;1.00;;;;;;5026035;28;20467;-65
2023/06/04 10:13:28;;;;;;;7.70;3.70;;;31.20;1.00;;;;;;5027750;28;20467;-66
2023/06/04 10:15:57;;;;;;;6.73;3.57;;;30.70;1.00;;;;;;5027239;28;20487;-65
2023/06/04 10:18:24;;;;;;;5.73;3.20;;;30.40;1.00;;;;;;5024526;28;20474;-65
2023/06/04 10:20:54;;;;;;;7.80;3.10;;;30.20;1.00;;;;;;5028541;28;20812;-65
2023/06/04 10:23:21;;;;;;;5.40;3.23;;;30.10;1.00;;;;;;5025432;28;20990;-65
2023/06/04 10:25:50;;;;;;;6.87;3.80;;;29.90;1.00;;;;;;5027496;28;20570;-65
2023/06/04 10:28:19;;;;;;;6.30;3.70;;;29.50;1.00;;;;;;5024128;28;20570;-65
2023/06/04 10:30:50;;;;;;;6.03;3.90;;;29.40;1.00;;;;;;5026091;28;20986;-65
2023/06/04 10:33:17;;;;;;;7.33;3.70;;;29.30;1.00;;;;;;5020646;28;20470;-65
2023/06/04 10:35:44;;;;;;;7.03;3.50;;;29.10;1.00;;;;;;5024900;28;21209;-65
2023/06/04 10:38:13;;;;;;;10.93;3.40;;;28.80;1.00;;;;;;5027271;28;20941;-65
2023/06/04 10:40:41;;;;;;;6.60;3.30;;;28.50;1.00;;;;;;5022504;28;20513;-65
2023/06/04 10:43:08;;;;;;;7.83;3.77;;;28.40;1.00;;;;;;5025840;28;20473;-65
2023/06/04 10:45:35;;;;;;;7.50;4.17;;;28.20;1.00;;;;;;5017453;28;20487;-65
2023/06/04 10:48:04;;;;;;;8.80;4.17;;;28.20;1.00;;;;;;5022773;28;20475;-65
2023/06/04 10:50:32;;;;;;;6.50;3.50;;;28.00;1.00;;;;;;5031372;28;20463;-65
2023/06/04 10:52:58;;;;;;;9.27;3.90;;;27.80;1.00;;;;;;5030037;28;20463;-66
2023/06/04 10:55:26;;;;;;;8.20;3.87;;;27.80;1.00;;;;;;5032037;28;20487;-65
2023/06/04 10:57:54;;;;;;;8.20;4.23;;;27.80;1.00;;;;;;5026102;28;21144;-65
2023/06/04 11:00:22;;;;;;;7.33;3.90;;;27.90;1.00;;;;;;5025777;28;20467;-65
2023/06/04 11:02:53;;;;;;;6.23;3.73;;;27.90;1.00;;;;;;5031094;28;20546;-65
2023/06/04 11:05:21;;;;;;;9.53;4.17;;;28.00;1.00;;;;;;5030148;28;21040;-65
2023/06/04 11:07:50;;;;;;;9.80;4.20;;;27.90;1.00;;;;;;5033603;28;20490;-65
2023/06/04 11:10:18;;;;;;;7.90;5.03;;;28.00;1.00;;;;;;5031354;28;20501;-65
2023/06/04 11:12:46;;;;;;;8.70;4.47;;;27.90;1.00;;;;;;5027674;28;20455;-65
2023/06/04 11:15:13;;;;;;;6.70;4.00;;;27.80;1.00;;;;;;5024799;28;20487;-66
2023/06/04 11:17:50;;;;;;;8.00;4.83;;;27.90;1.00;;;;;;5031280;28;20458;-66
2023/06/04 11:20:18;;;;;;;11.10;5.80;;;28.00;1.00;;;;;;5029274;28;21009;-66
2023/06/04 11:22:52;;;;;;;7.50;4.43;;;28.00;1.00;;;;;;5025921;28;20490;-66
2023/06/04 11:25:22;;;;;;;9.20;5.27;;;28.00;1.00;;;;;;5025862;28;20482;-66
2023/06/04 11:27:49;;;;;;;7.80;4.90;;;27.90;1.00;;;;;;5028688;28;20587;-66
2023/06/04 11:30:16;;;;;;;9.60;5.43;;;27.70;1.00;;;;;;5029850;28;20473;-66
2023/06/04 11:32:43;;;;;;;9.63;4.30;;;27.50;1.00;;;;;;5030196;28;20466;-66
2023/06/04 11:35:11;;;;;;;7.80;5.30;;;27.50;1.00;;;;;;5029344;28;20491;-66
2023/06/04 11:37:38;;;;;;;11.80;5.60;;;27.50;1.00;;;;;;5030193;28;20949;-66
2023/06/04 11:40:17;;;;;;;7.80;4.83;;;27.40;1.00;;;;;;5029430;28;20469;-66
2023/06/04 11:42:44;;;;;;;9.47;4.57;;;27.00;1.00;;;;;;5028250;28;21012;-65
2023/06/04 11:45:11;;;;;;;8.40;4.47;;;26.90;1.00;;;;;;5026590;28;20493;-65
2023/06/04 11:47:38;;;;;;;8.50;4.60;;;26.70;1.00;;;;;;5029104;28;20892;-65
2023/06/04 11:50:06;;;;;;;7.90;4.77;;;26.80;1.00;;;;;;5030273;28;20462;-65
2023/06/04 11:52:34;;;;;;;8.43;5.13;;;26.90;1.00;;;;;;5026371;28;20478;-65
2023/06/04 11:55:01;;;;;;;7.47;4.27;;;26.90;1.00;;;;;;5024284;28;20482;-65
2023/06/04 11:57:30;;;;;;;7.40;4.83;;;26.80;1.00;;;;;;5033043;28;20481;-65
2023/06/04 11:59:56;;;;;;;7.10;4.97;;;26.80;1.00;;;;;;5026280;28;20459;-66
2023/06/04 12:02:23;;;;;;;8.30;4.93;;;26.70;1.00;;;;;;5020225;28;21017;-66
2023/06/04 12:04:50;;;;;;;7.53;4.70;;;26.80;1.00;;;;;;5028017;28;20483;-66
2023/06/04 12:07:23;;;;;;;6.13;4.03;;;26.80;1.00;;;;;;5021952;28;20494;-65
2023/06/04 12:09:50;;;;;;;7.10;4.80;;;26.90;1.00;;;;;;5028197;28;20455;-66
2023/06/04 12:12:24;;;;;;;10.63;4.63;;;27.10;1.00;;;;;;5028752;28;20466;-66
2023/06/04 12:14:59;;;;;;;10.27;4.73;;;27.10;1.00;;;;;;5028347;28;20516;-66
2023/06/04 12:17:25;;;;;;;7.43;4.90;;;27.20;1.00;;;;;;5025515;28;20465;-66
2023/06/04 12:19:54;;;;;;;8.00;5.03;;;27.10;1.00;;;;;;5029685;28;20471;-66
2023/06/04 12:22:21;;;;;;;8.67;5.70;;;27.00;1.00;;;;;;5024633;28;20962;-66
2023/06/04 12:24:52;;;;;;;8.60;5.17;;;27.00;1.00;;;;;;5028411;28;20509;-66
2023/06/04 12:27:21;;;;;;;8.80;5.30;;;27.00;1.00;;;;;;5029577;28;20483;-66
2023/06/04 12:29:55;;;;;;;6.77;4.80;;;27.00;1.00;;;;;;5022839;28;20501;-66
2023/06/04 12:32:24;;;;;;;7.53;4.70;;;27.10;1.00;;;;;;5027990;28;20908;-66
2023/06/04 12:34:50;;;;;;;9.70;4.93;;;27.10;1.00;;;;;;5027975;28;20505;-66
2023/06/04 12:37:17;;;;;;;7.20;4.57;;;27.00;1.00;;;;;;5024723;28;20470;-66
2023/06/04 12:39:44;;;;;;;7.17;4.40;;;27.00;1.00;;;;;;5030004;28;20966;-66
2023/06/04 12:42:11;;;;;;;7.20;5.13;;;27.00;1.00;;;;;;5025009;28;20570;-66
2023/06/04 12:44:39;;;;;;;11.20;4.90;;;26.90;1.00;;;;;;5027103;28;20482;-66
2023/06/04 12:47:06;;;;;;;7.90;5.23;;;26.70;1.00;;;;;;5025943;28;20946;-66
2023/06/04 12:49:34;;;;;;;6.90;4.40;;;26.50;1.00;;;;;;5022488;28;20478;-65
2023/06/04 12:52:01;;;;;;;7.87;4.70;;;26.40;1.00;;;;;;5026200;28;20817;-66
2023/06/04 12:54:28;;;;;;;8.63;4.80;;;26.40;1.00;;;;;;5029555;28;20490;-65
2023/06/04 12:56:57;;;;;;;7.47;4.87;;;26.30;1.00;;;;;;5033013;28;20805;-65